sensor_id;sensor_type;location;lat;lon;timestamp;temperature;humidity
44513;DHT22;30219;50.588;9.504;2022-09-09T00:01:30;15.60;99.90
44513;DHT22;30219;50.588;9.504;2022-09-09T00:04:03;15.60;99.90
44513;DHT22;30219;50.588;9.504;2022-09-09T00:06:43;15.60;99.90
44513;DHT22;30219;50.588;9.504;2022-09-09T00:09:17;15.50;99.90
44513;DHT22;30219;50.588;9.504;2022-09-09T00:17:46;15.50;99.90
44513;DHT22;30219;50.588;9.504;2022-09-09T00:23:09;15.40;99.90
44513;DHT22;30219;50.588;9.504;2022-09-09T00:28:27;15.10;99.90
44513;DHT22;30219;50.588;9.504;2022-09-09T00:31:04;15.10;99.90
44513;DHT22;30219;50.588;9.504;2022-09-09T00:33:34;15.10;99.90
44513;DHT22;30219;50.588;9.504;2022-09-09T00:36:00;15.00;99.90
44513;DHT22;30219;50.588;9.504;2022-09-09T00:38:40;15.10;99.90
44513;DHT22;30219;50.588;9.504;2022-09-09T00:41:14;15.20;99.90
44513;DHT22;30219;50.588;9.504;2022-09-09T00:43:41;15.20;99.90
44513;DHT22;30219;50.588;9.504;2022-09-09T00:46:14;15.30;99.90
44513;DHT22;30219;50.588;9.504;2022-09-09T00:48:58;15.30;99.90
44513;DHT22;30219;50.588;9.504;2022-09-09T00:54:51;15.30;99.90
44513;DHT22;30219;50.588;9.504;2022-09-09T00:57:29;15.30;99.90
44513;DHT22;30219;50.588;9.504;2022-09-09T01:03:12;15.30;99.90
44513;DHT22;30219;50.588;9.504;2022-09-09T01:12:01;15.00;99.90
44513;DHT22;30219;50.588;9.504;2022-09-09T01:14:27;14.90;99.90
44513;DHT22;30219;50.588;9.504;2022-09-09T01:16:58;14.80;99.90
44513;DHT22;30219;50.588;9.504;2022-09-09T01:27:52;14.60;99.90
44513;DHT22;30219;50.588;9.504;2022-09-09T01:30:19;14.60;99.90
44513;DHT22;30219;50.588;9.504;2022-09-09T01:32:50;14.60;99.90
44513;DHT22;30219;50.588;9.504;2022-09-09T01:35:44;14.60;99.90
44513;DHT22;30219;50.588;9.504;2022-09-09T01:38:10;14.60;99.90
44513;DHT22;30219;50.588;9.504;2022-09-09T01:40:36;14.50;99.90
44513;DHT22;30219;50.588;9.504;2022-09-09T01:43:02;14.50;99.90
44513;DHT22;30219;50.588;9.504;2022-09-09T01:45:29;14.40;99.90
44513;DHT22;30219;50.588;9.504;2022-09-09T01:47:56;14.40;99.90
44513;DHT22;30219;50.588;9.504;2022-09-09T01:50:22;14.40;99.90
44513;DHT22;30219;50.588;9.504;2022-09-09T01:52:57;14.50;99.90
44513;DHT22;30219;50.588;9.504;2022-09-09T01:55:39;14.40;99.90
44513;DHT22;30219;50.588;9.504;2022-09-09T02:01:34;14.60;99.90
44513;DHT22;30219;50.588;9.504;2022-09-09T02:04:05;14.70;99.90
44513;DHT22;30219;50.588;9.504;2022-09-09T02:06:37;14.80;99.90
44513;DHT22;30219;50.588;9.504;2022-09-09T02:09:05;14.60;99.90
44513;DHT22;30219;50.588;9.504;2022-09-09T02:11:32;14.40;99.90
44513;DHT22;30219;50.588;9.504;2022-09-09T02:14:18;14.20;99.90
44513;DHT22;30219;50.588;9.504;2022-09-09T02:16:57;14.10;99.90
44513;DHT22;30219;50.588;9.504;2022-09-09T02:19:32;14.10;99.90
44513;DHT22;30219;50.588;9.504;2022-09-09T02:22:00;14.00;99.90
44513;DHT22;30219;50.588;9.504;2022-09-09T02:24:27;13.90;99.90
44513;DHT22;30219;50.588;9.504;2022-09-09T02:26:56;14.00;99.90
44513;DHT22;30219;50.588;9.504;2022-09-09T02:29:26;14.00;99.90
44513;DHT22;30219;50.588;9.504;2022-09-09T02:31:53;14.00;99.90
44513;DHT22;30219;50.588;9.504;2022-09-09T02:34:23;14.10;99.90
44513;DHT22;30219;50.588;9.504;2022-09-09T02:36:50;14.00;99.90
44513;DHT22;30219;50.588;9.504;2022-09-09T02:39:18;13.90;99.90
44513;DHT22;30219;50.588;9.504;2022-09-09T02:41:43;13.80;99.90
44513;DHT22;30219;50.588;9.504;2022-09-09T02:44:13;13.80;99.90
44513;DHT22;30219;50.588;9.504;2022-09-09T02:49:29;13.50;99.90
44513;DHT22;30219;50.588;9.504;2022-09-09T02:52:15;13.50;99.90
44513;DHT22;30219;50.588;9.504;2022-09-09T02:54:44;13.50;99.90
44513;DHT22;30219;50.588;9.504;2022-09-09T02:57:24;13.30;99.90
44513;DHT22;30219;50.588;9.504;2022-09-09T02:59:51;13.30;99.90
44513;DHT22;30219;50.588;9.504;2022-09-09T03:02:18;13.30;99.90
44513;DHT22;30219;50.588;9.504;2022-09-09T03:04:44;13.30;99.90
44513;DHT22;30219;50.588;9.504;2022-09-09T03:07:11;13.40;99.90
44513;DHT22;30219;50.588;9.504;2022-09-09T03:09:37;13.30;99.90
44513;DHT22;30219;50.588;9.504;2022-09-09T03:12:03;13.40;99.90
44513;DHT22;30219;50.588;9.504;2022-09-09T03:14:32;13.50;99.90
44513;DHT22;30219;50.588;9.504;2022-09-09T03:16:58;13.60;99.90
44513;DHT22;30219;50.588;9.504;2022-09-09T03:19:26;13.50;99.90
44513;DHT22;30219;50.588;9.504;2022-09-09T03:21:53;13.40;99.90
44513;DHT22;30219;50.588;9.504;2022-09-09T03:24:19;13.40;99.90
44513;DHT22;30219;50.588;9.504;2022-09-09T03:26:45;13.40;99.90
44513;DHT22;30219;50.588;9.504;2022-09-09T03:29:11;13.40;99.90
44513;DHT22;30219;50.588;9.504;2022-09-09T03:31:38;13.40;99.90
44513;DHT22;30219;50.588;9.504;2022-09-09T03:34:04;13.40;99.90
44513;DHT22;30219;50.588;9.504;2022-09-09T03:36:31;13.40;99.90
44513;DHT22;30219;50.588;9.504;2022-09-09T03:38:56;13.30;99.90
44513;DHT22;30219;50.588;9.504;2022-09-09T03:41:23;13.20;99.90
44513;DHT22;30219;50.588;9.504;2022-09-09T03:43:50;13.10;99.90
44513;DHT22;30219;50.588;9.504;2022-09-09T03:46:17;13.00;99.90
44513;DHT22;30219;50.588;9.504;2022-09-09T03:48:42;13.00;99.90
44513;DHT22;30219;50.588;9.504;2022-09-09T03:51:08;13.00;99.90
44513;DHT22;30219;50.588;9.504;2022-09-09T03:53:34;13.00;99.90
44513;DHT22;30219;50.588;9.504;2022-09-09T03:55:59;13.00;99.90
44513;DHT22;30219;50.588;9.504;2022-09-09T03:58:26;12.90;99.90
44513;DHT22;30219;50.588;9.504;2022-09-09T04:00:54;12.90;99.90
44513;DHT22;30219;50.588;9.504;2022-09-09T04:03:20;12.90;99.90
44513;DHT22;30219;50.588;9.504;2022-09-09T04:05:48;12.90;99.90
44513;DHT22;30219;50.588;9.504;2022-09-09T04:08:14;13.10;99.90
44513;DHT22;30219;50.588;9.504;2022-09-09T04:10:39;13.20;99.90
44513;DHT22;30219;50.588;9.504;2022-09-09T04:13:05;13.20;99.90
44513;DHT22;30219;50.588;9.504;2022-09-09T04:15:31;13.30;99.90
44513;DHT22;30219;50.588;9.504;2022-09-09T04:17:58;13.30;99.90
44513;DHT22;30219;50.588;9.504;2022-09-09T04:20:24;13.30;99.90
44513;DHT22;30219;50.588;9.504;2022-09-09T04:22:49;13.30;99.90
44513;DHT22;30219;50.588;9.504;2022-09-09T04:25:15;13.30;99.90
44513;DHT22;30219;50.588;9.504;2022-09-09T04:27:40;13.30;99.90
44513;DHT22;30219;50.588;9.504;2022-09-09T04:30:08;13.30;99.90
44513;DHT22;30219;50.588;9.504;2022-09-09T04:32:34;13.20;99.90
44513;DHT22;30219;50.588;9.504;2022-09-09T04:35:01;13.20;99.90
44513;DHT22;30219;50.588;9.504;2022-09-09T04:37:26;13.20;99.90
44513;DHT22;30219;50.588;9.504;2022-09-09T04:39:52;13.30;99.90
44513;DHT22;30219;50.588;9.504;2022-09-09T04:42:17;13.20;99.90
44513;DHT22;30219;50.588;9.504;2022-09-09T04:44:44;13.10;99.90
44513;DHT22;30219;50.588;9.504;2022-09-09T04:47:11;13.10;99.90
44513;DHT22;30219;50.588;9.504;2022-09-09T04:49:36;13.10;99.90
44513;DHT22;30219;50.588;9.504;2022-09-09T04:52:03;13.10;99.90
44513;DHT22;30219;50.588;9.504;2022-09-09T04:54:29;13.10;99.90
44513;DHT22;30219;50.588;9.504;2022-09-09T04:56:55;13.00;99.90
44513;DHT22;30219;50.588;9.504;2022-09-09T04:59:21;12.90;99.90
44513;DHT22;30219;50.588;9.504;2022-09-09T05:01:47;12.90;99.90
44513;DHT22;30219;50.588;9.504;2022-09-09T05:04:13;12.80;99.90
44513;DHT22;30219;50.588;9.504;2022-09-09T05:06:41;12.70;99.90
44513;DHT22;30219;50.588;9.504;2022-09-09T05:09:08;12.70;99.90
44513;DHT22;30219;50.588;9.504;2022-09-09T05:11:34;12.70;99.90
44513;DHT22;30219;50.588;9.504;2022-09-09T05:14:02;12.60;99.90
44513;DHT22;30219;50.588;9.504;2022-09-09T05:16:28;12.60;99.90
44513;DHT22;30219;50.588;9.504;2022-09-09T05:18:54;12.70;99.90
44513;DHT22;30219;50.588;9.504;2022-09-09T05:21:22;12.70;99.90
44513;DHT22;30219;50.588;9.504;2022-09-09T05:23:48;12.80;99.90
44513;DHT22;30219;50.588;9.504;2022-09-09T05:26:19;12.80;99.90
44513;DHT22;30219;50.588;9.504;2022-09-09T05:28:46;12.90;99.90
44513;DHT22;30219;50.588;9.504;2022-09-09T05:31:14;13.00;99.90
44513;DHT22;30219;50.588;9.504;2022-09-09T05:33:43;13.10;99.90
44513;DHT22;30219;50.588;9.504;2022-09-09T05:36:16;13.10;99.90
44513;DHT22;30219;50.588;9.504;2022-09-09T05:38:43;13.30;99.90
44513;DHT22;30219;50.588;9.504;2022-09-09T05:41:10;13.40;99.90
44513;DHT22;30219;50.588;9.504;2022-09-09T05:43:37;13.50;99.90
44513;DHT22;30219;50.588;9.504;2022-09-09T05:46:10;13.70;99.90
44513;DHT22;30219;50.588;9.504;2022-09-09T05:48:43;14.10;99.90
44513;DHT22;30219;50.588;9.504;2022-09-09T05:51:10;14.40;99.90
44513;DHT22;30219;50.588;9.504;2022-09-09T05:53:38;14.70;99.90
44513;DHT22;30219;50.588;9.504;2022-09-09T05:56:04;15.00;99.90
44513;DHT22;30219;50.588;9.504;2022-09-09T05:58:31;15.20;99.90
44513;DHT22;30219;50.588;9.504;2022-09-09T06:01:09;15.30;99.90
44513;DHT22;30219;50.588;9.504;2022-09-09T06:03:36;15.30;99.90
44513;DHT22;30219;50.588;9.504;2022-09-09T06:06:10;15.40;99.90
44513;DHT22;30219;50.588;9.504;2022-09-09T06:08:41;15.40;99.90
44513;DHT22;30219;50.588;9.504;2022-09-09T06:11:21;15.50;99.90
44513;DHT22;30219;50.588;9.504;2022-09-09T06:13:47;15.50;99.90
44513;DHT22;30219;50.588;9.504;2022-09-09T06:16:15;15.40;99.90
44513;DHT22;30219;50.588;9.504;2022-09-09T06:18:41;15.50;99.90
44513;DHT22;30219;50.588;9.504;2022-09-09T06:21:18;15.60;99.90
44513;DHT22;30219;50.588;9.504;2022-09-09T06:23:45;15.70;99.90
44513;DHT22;30219;50.588;9.504;2022-09-09T06:26:13;15.70;99.90
44513;DHT22;30219;50.588;9.504;2022-09-09T06:28:40;15.70;99.90
44513;DHT22;30219;50.588;9.504;2022-09-09T06:31:09;15.80;99.90
44513;DHT22;30219;50.588;9.504;2022-09-09T06:33:40;15.80;99.90
44513;DHT22;30219;50.588;9.504;2022-09-09T06:36:12;15.90;99.90
44513;DHT22;30219;50.588;9.504;2022-09-09T06:38:39;15.90;99.90
44513;DHT22;30219;50.588;9.504;2022-09-09T06:41:05;16.00;99.90
44513;DHT22;30219;50.588;9.504;2022-09-09T06:43:31;16.00;99.90
44513;DHT22;30219;50.588;9.504;2022-09-09T06:46:10;15.90;99.90
44513;DHT22;30219;50.588;9.504;2022-09-09T06:48:36;15.90;99.90
44513;DHT22;30219;50.588;9.504;2022-09-09T06:51:12;15.90;99.90
44513;DHT22;30219;50.588;9.504;2022-09-09T06:53:40;15.90;99.90
44513;DHT22;30219;50.588;9.504;2022-09-09T06:56:21;15.80;99.90
44513;DHT22;30219;50.588;9.504;2022-09-09T06:58:51;15.90;99.90
44513;DHT22;30219;50.588;9.504;2022-09-09T07:01:37;16.10;99.90
44513;DHT22;30219;50.588;9.504;2022-09-09T07:04:05;16.20;99.90
44513;DHT22;30219;50.588;9.504;2022-09-09T07:06:35;16.20;99.90
44513;DHT22;30219;50.588;9.504;2022-09-09T07:09:07;16.30;99.90
44513;DHT22;30219;50.588;9.504;2022-09-09T07:11:48;16.30;99.90
44513;DHT22;30219;50.588;9.504;2022-09-09T07:14:14;16.70;99.90
44513;DHT22;30219;50.588;9.504;2022-09-09T07:16:43;17.40;99.90
44513;DHT22;30219;50.588;9.504;2022-09-09T07:19:10;18.00;99.90
44513;DHT22;30219;50.588;9.504;2022-09-09T07:21:36;18.70;99.90
44513;DHT22;30219;50.588;9.504;2022-09-09T07:24:02;19.30;99.90
44513;DHT22;30219;50.588;9.504;2022-09-09T07:26:29;19.20;99.90
44513;DHT22;30219;50.588;9.504;2022-09-09T07:28:56;19.30;99.90
44513;DHT22;30219;50.588;9.504;2022-09-09T07:31:28;19.10;99.90
44513;DHT22;30219;50.588;9.504;2022-09-09T07:33:55;19.00;99.90
44513;DHT22;30219;50.588;9.504;2022-09-09T07:36:27;18.60;99.90
44513;DHT22;30219;50.588;9.504;2022-09-09T07:39:02;18.20;99.90
44513;DHT22;30219;50.588;9.504;2022-09-09T07:41:31;17.90;99.90
44513;DHT22;30219;50.588;9.504;2022-09-09T07:43:59;17.70;99.90
44513;DHT22;30219;50.588;9.504;2022-09-09T07:46:26;17.40;99.90
44513;DHT22;30219;50.588;9.504;2022-09-09T07:48:53;17.50;99.90
44513;DHT22;30219;50.588;9.504;2022-09-09T07:51:22;17.20;99.90
44513;DHT22;30219;50.588;9.504;2022-09-09T07:53:52;17.10;99.90
44513;DHT22;30219;50.588;9.504;2022-09-09T07:56:18;17.00;99.90
44513;DHT22;30219;50.588;9.504;2022-09-09T07:58:47;17.00;99.90
44513;DHT22;30219;50.588;9.504;2022-09-09T08:01:19;17.20;99.90
44513;DHT22;30219;50.588;9.504;2022-09-09T08:03:45;17.60;99.90
44513;DHT22;30219;50.588;9.504;2022-09-09T08:06:11;17.60;99.90
44513;DHT22;30219;50.588;9.504;2022-09-09T08:08:38;18.10;99.90
44513;DHT22;30219;50.588;9.504;2022-09-09T08:11:09;18.70;99.90
44513;DHT22;30219;50.588;9.504;2022-09-09T08:13:36;19.10;99.90
44513;DHT22;30219;50.588;9.504;2022-09-09T08:16:10;19.10;99.90
44513;DHT22;30219;50.588;9.504;2022-09-09T08:18:37;18.90;99.90
44513;DHT22;30219;50.588;9.504;2022-09-09T08:21:14;18.80;99.90
44513;DHT22;30219;50.588;9.504;2022-09-09T08:23:41;18.90;99.90
44513;DHT22;30219;50.588;9.504;2022-09-09T08:26:16;19.10;99.90
44513;DHT22;30219;50.588;9.504;2022-09-09T08:28:43;19.10;99.90
44513;DHT22;30219;50.588;9.504;2022-09-09T08:31:17;19.10;99.90
44513;DHT22;30219;50.588;9.504;2022-09-09T08:33:43;18.80;99.90
44513;DHT22;30219;50.588;9.504;2022-09-09T08:36:12;18.80;99.90
44513;DHT22;30219;50.588;9.504;2022-09-09T08:38:38;18.70;99.90
44513;DHT22;30219;50.588;9.504;2022-09-09T08:41:17;18.80;99.90
44513;DHT22;30219;50.588;9.504;2022-09-09T08:43:50;19.00;99.90
44513;DHT22;30219;50.588;9.504;2022-09-09T08:46:28;19.20;99.90
44513;DHT22;30219;50.588;9.504;2022-09-09T08:51:42;18.90;99.90
44513;DHT22;30219;50.588;9.504;2022-09-09T08:54:09;18.90;99.90
44513;DHT22;30219;50.588;9.504;2022-09-09T08:56:35;19.00;99.90
44513;DHT22;30219;50.588;9.504;2022-09-09T08:59:02;19.10;99.90
44513;DHT22;30219;50.588;9.504;2022-09-09T09:01:53;19.50;99.90
44513;DHT22;30219;50.588;9.504;2022-09-09T09:04:33;20.50;99.90
44513;DHT22;30219;50.588;9.504;2022-09-09T09:07:32;21.20;99.90
44513;DHT22;30219;50.588;9.504;2022-09-09T09:12:55;21.50;99.00
44513;DHT22;30219;50.588;9.504;2022-09-09T09:15:25;21.70;98.80
44513;DHT22;30219;50.588;9.504;2022-09-09T09:17:51;21.80;98.50
44513;DHT22;30219;50.588;9.504;2022-09-09T09:20:23;21.90;98.20
44513;DHT22;30219;50.588;9.504;2022-09-09T09:22:57;21.50;98.40
44513;DHT22;30219;50.588;9.504;2022-09-09T09:25:35;21.10;99.40
44513;DHT22;30219;50.588;9.504;2022-09-09T09:28:17;20.70;99.80
44513;DHT22;30219;50.588;9.504;2022-09-09T09:30:54;20.00;99.90
44513;DHT22;30219;50.588;9.504;2022-09-09T09:33:22;19.60;99.90
44513;DHT22;30219;50.588;9.504;2022-09-09T09:35:50;19.60;99.90
44513;DHT22;30219;50.588;9.504;2022-09-09T09:38:25;19.70;99.90
44513;DHT22;30219;50.588;9.504;2022-09-09T09:40:53;19.40;99.90
44513;DHT22;30219;50.588;9.504;2022-09-09T09:43:37;19.10;99.90
44513;DHT22;30219;50.588;9.504;2022-09-09T09:46:05;18.70;99.90
44513;DHT22;30219;50.588;9.504;2022-09-09T09:48:42;18.80;99.90
44513;DHT22;30219;50.588;9.504;2022-09-09T09:51:14;19.00;99.90
44513;DHT22;30219;50.588;9.504;2022-09-09T09:53:41;19.60;99.90
44513;DHT22;30219;50.588;9.504;2022-09-09T09:56:10;20.10;99.90
44513;DHT22;30219;50.588;9.504;2022-09-09T09:58:56;20.70;99.90
44513;DHT22;30219;50.588;9.504;2022-09-09T10:01:31;20.90;99.90
44513;DHT22;30219;50.588;9.504;2022-09-09T10:06:58;20.50;99.90
44513;DHT22;30219;50.588;9.504;2022-09-09T10:09:34;20.40;99.90
44513;DHT22;30219;50.588;9.504;2022-09-09T10:17:40;20.70;99.90
44513;DHT22;30219;50.588;9.504;2022-09-09T10:23:13;20.80;99.90
44513;DHT22;30219;50.588;9.504;2022-09-09T10:25:59;21.10;99.40
44513;DHT22;30219;50.588;9.504;2022-09-09T10:28:51;21.20;99.00
44513;DHT22;30219;50.588;9.504;2022-09-09T10:34:24;21.10;98.30
44513;DHT22;30219;50.588;9.504;2022-09-09T10:36:55;21.20;98.00
44513;DHT22;30219;50.588;9.504;2022-09-09T10:39:38;21.00;97.40
44513;DHT22;30219;50.588;9.504;2022-09-09T10:42:14;20.70;97.20
44513;DHT22;30219;50.588;9.504;2022-09-09T10:50:25;20.20;98.30
44513;DHT22;30219;50.588;9.504;2022-09-09T10:53:06;19.90;98.80
44513;DHT22;30219;50.588;9.504;2022-09-09T10:55:39;19.90;98.30
44513;DHT22;30219;50.588;9.504;2022-09-09T10:58:12;19.60;98.80
44513;DHT22;30219;50.588;9.504;2022-09-09T11:00:43;19.70;99.10
44513;DHT22;30219;50.588;9.504;2022-09-09T11:03:23;19.80;99.30
44513;DHT22;30219;50.588;9.504;2022-09-09T11:05:55;20.50;98.50
44513;DHT22;30219;50.588;9.504;2022-09-09T11:08:25;20.20;97.90
44513;DHT22;30219;50.588;9.504;2022-09-09T11:19:03;19.30;97.10
44513;DHT22;30219;50.588;9.504;2022-09-09T11:21:46;19.30;98.10
44513;DHT22;30219;50.588;9.504;2022-09-09T11:24:23;19.20;98.50
44513;DHT22;30219;50.588;9.504;2022-09-09T11:27:08;19.00;99.40
44513;DHT22;30219;50.588;9.504;2022-09-09T11:29:58;19.10;99.90
44513;DHT22;30219;50.588;9.504;2022-09-09T11:38:51;19.40;99.70
44513;DHT22;30219;50.588;9.504;2022-09-09T11:41:18;19.60;98.70
44513;DHT22;30219;50.588;9.504;2022-09-09T11:43:53;19.50;98.70
44513;DHT22;30219;50.588;9.504;2022-09-09T11:46:34;19.10;99.20
44513;DHT22;30219;50.588;9.504;2022-09-09T11:49:03;19.00;99.30
44513;DHT22;30219;50.588;9.504;2022-09-09T11:51:31;19.10;99.70
44513;DHT22;30219;50.588;9.504;2022-09-09T11:54:00;18.80;99.70
44513;DHT22;30219;50.588;9.504;2022-09-09T11:56:44;18.90;99.80
44513;DHT22;30219;50.588;9.504;2022-09-09T11:59:30;19.10;99.80
44513;DHT22;30219;50.588;9.504;2022-09-09T12:02:00;19.20;99.40
44513;DHT22;30219;50.588;9.504;2022-09-09T12:04:37;19.20;99.60
44513;DHT22;30219;50.588;9.504;2022-09-09T12:12:43;19.20;99.90
44513;DHT22;30219;50.588;9.504;2022-09-09T12:30:53;20.10;99.50
44513;DHT22;30219;50.588;9.504;2022-09-09T12:33:17;20.20;97.80
44513;DHT22;30219;50.588;9.504;2022-09-09T12:35:47;19.60;99.20
44513;DHT22;30219;50.588;9.504;2022-09-09T12:40:56;20.10;98.60
44513;DHT22;30219;50.588;9.504;2022-09-09T12:43:24;20.50;97.90
44513;DHT22;30219;50.588;9.504;2022-09-09T12:45:52;21.10;97.50
44513;DHT22;30219;50.588;9.504;2022-09-09T12:48:58;21.30;97.30
44513;DHT22;30219;50.588;9.504;2022-09-09T12:51:29;21.40;96.30
44513;DHT22;30219;50.588;9.504;2022-09-09T12:53:56;21.50;96.70
44513;DHT22;30219;50.588;9.504;2022-09-09T12:56:30;21.30;96.00
44513;DHT22;30219;50.588;9.504;2022-09-09T12:58:57;21.60;95.80
44513;DHT22;30219;50.588;9.504;2022-09-09T13:01:27;21.90;95.70
44513;DHT22;30219;50.588;9.504;2022-09-09T13:03:54;22.10;94.30
44513;DHT22;30219;50.588;9.504;2022-09-09T13:06:22;22.00;94.30
44513;DHT22;30219;50.588;9.504;2022-09-09T13:08:49;21.80;93.60
44513;DHT22;30219;50.588;9.504;2022-09-09T13:11:28;21.60;94.20
44513;DHT22;30219;50.588;9.504;2022-09-09T13:13:56;21.60;94.50
44513;DHT22;30219;50.588;9.504;2022-09-09T13:16:30;21.50;94.20
44513;DHT22;30219;50.588;9.504;2022-09-09T13:21:34;21.10;95.60
44513;DHT22;30219;50.588;9.504;2022-09-09T13:24:00;21.00;95.30
44513;DHT22;30219;50.588;9.504;2022-09-09T13:26:29;21.00;95.00
44513;DHT22;30219;50.588;9.504;2022-09-09T13:29:07;20.70;96.10
44513;DHT22;30219;50.588;9.504;2022-09-09T13:31:36;20.60;96.10
44513;DHT22;30219;50.588;9.504;2022-09-09T13:34:13;20.90;96.10
44513;DHT22;30219;50.588;9.504;2022-09-09T13:36:39;20.60;95.90
44513;DHT22;30219;50.588;9.504;2022-09-09T13:39:15;20.70;96.00
44513;DHT22;30219;50.588;9.504;2022-09-09T13:41:43;20.90;96.10
44513;DHT22;30219;50.588;9.504;2022-09-09T13:44:22;20.90;95.00
44513;DHT22;30219;50.588;9.504;2022-09-09T13:47:03;21.00;95.20
44513;DHT22;30219;50.588;9.504;2022-09-09T13:49:30;20.90;95.60
44513;DHT22;30219;50.588;9.504;2022-09-09T13:52:16;20.90;95.00
44513;DHT22;30219;50.588;9.504;2022-09-09T13:54:51;21.00;95.10
44513;DHT22;30219;50.588;9.504;2022-09-09T13:57:23;21.20;94.80
44513;DHT22;30219;50.588;9.504;2022-09-09T13:59:49;21.10;94.20
44513;DHT22;30219;50.588;9.504;2022-09-09T14:02:15;21.00;94.50
44513;DHT22;30219;50.588;9.504;2022-09-09T14:04:42;20.80;94.90
44513;DHT22;30219;50.588;9.504;2022-09-09T14:07:14;20.50;95.20
44513;DHT22;30219;50.588;9.504;2022-09-09T14:09:41;20.60;95.70
44513;DHT22;30219;50.588;9.504;2022-09-09T14:12:13;20.70;95.70
44513;DHT22;30219;50.588;9.504;2022-09-09T14:14:40;20.50;95.50
44513;DHT22;30219;50.588;9.504;2022-09-09T14:17:07;20.40;95.60
44513;DHT22;30219;50.588;9.504;2022-09-09T14:19:33;20.50;96.00
44513;DHT22;30219;50.588;9.504;2022-09-09T14:21:58;20.30;96.10
44513;DHT22;30219;50.588;9.504;2022-09-09T14:24:24;20.30;96.90
44513;DHT22;30219;50.588;9.504;2022-09-09T14:26:50;20.00;97.00
44513;DHT22;30219;50.588;9.504;2022-09-09T14:29:16;20.10;97.30
44513;DHT22;30219;50.588;9.504;2022-09-09T14:31:41;20.30;97.60
44513;DHT22;30219;50.588;9.504;2022-09-09T14:34:07;20.50;95.60
44513;DHT22;30219;50.588;9.504;2022-09-09T14:36:33;20.40;95.60
44513;DHT22;30219;50.588;9.504;2022-09-09T14:38:59;20.10;96.00
44513;DHT22;30219;50.588;9.504;2022-09-09T14:41:24;20.00;96.30
44513;DHT22;30219;50.588;9.504;2022-09-09T14:43:50;20.30;96.30
44513;DHT22;30219;50.588;9.504;2022-09-09T14:46:19;20.40;96.10
44513;DHT22;30219;50.588;9.504;2022-09-09T14:48:45;20.30;96.60
44513;DHT22;30219;50.588;9.504;2022-09-09T14:51:12;20.10;97.00
44513;DHT22;30219;50.588;9.504;2022-09-09T14:53:39;19.70;97.30
44513;DHT22;30219;50.588;9.504;2022-09-09T14:56:21;19.80;97.70
44513;DHT22;30219;50.588;9.504;2022-09-09T14:58:48;19.80;97.10
44513;DHT22;30219;50.588;9.504;2022-09-09T15:01:17;19.70;97.30
44513;DHT22;30219;50.588;9.504;2022-09-09T15:03:51;20.10;97.30
44513;DHT22;30219;50.588;9.504;2022-09-09T15:06:18;20.30;96.30
44513;DHT22;30219;50.588;9.504;2022-09-09T15:08:45;20.40;96.70
44513;DHT22;30219;50.588;9.504;2022-09-09T15:11:11;20.70;95.80
44513;DHT22;30219;50.588;9.504;2022-09-09T15:13:39;20.50;95.50
44513;DHT22;30219;50.588;9.504;2022-09-09T15:16:18;20.40;95.20
44513;DHT22;30219;50.588;9.504;2022-09-09T15:18:44;20.60;95.30
44513;DHT22;30219;50.588;9.504;2022-09-09T15:21:16;20.20;94.60
44513;DHT22;30219;50.588;9.504;2022-09-09T15:23:43;20.10;94.80
44513;DHT22;30219;50.588;9.504;2022-09-09T15:26:09;19.90;94.70
44513;DHT22;30219;50.588;9.504;2022-09-09T15:28:37;19.70;95.00
44513;DHT22;30219;50.588;9.504;2022-09-09T15:31:23;19.60;95.00
44513;DHT22;30219;50.588;9.504;2022-09-09T15:33:53;19.50;95.00
44513;DHT22;30219;50.588;9.504;2022-09-09T15:36:30;19.50;94.70
44513;DHT22;30219;50.588;9.504;2022-09-09T15:38:57;19.40;94.70
44513;DHT22;30219;50.588;9.504;2022-09-09T15:41:23;19.40;95.00
44513;DHT22;30219;50.588;9.504;2022-09-09T15:43:51;19.40;95.00
44513;DHT22;30219;50.588;9.504;2022-09-09T15:48:44;19.40;95.50
44513;DHT22;30219;50.588;9.504;2022-09-09T15:51:10;19.20;95.70
44513;DHT22;30219;50.588;9.504;2022-09-09T15:53:39;19.00;96.10
44513;DHT22;30219;50.588;9.504;2022-09-09T15:56:05;18.90;96.30
44513;DHT22;30219;50.588;9.504;2022-09-09T15:58:39;18.90;96.40
44513;DHT22;30219;50.588;9.504;2022-09-09T16:01:09;18.80;96.70
44513;DHT22;30219;50.588;9.504;2022-09-09T16:03:41;18.90;96.60
44513;DHT22;30219;50.588;9.504;2022-09-09T16:06:09;18.80;97.00
44513;DHT22;30219;50.588;9.504;2022-09-09T16:08:36;19.00;96.80
44513;DHT22;30219;50.588;9.504;2022-09-09T16:11:29;19.00;96.90
44513;DHT22;30219;50.588;9.504;2022-09-09T16:13:56;18.90;96.90
44513;DHT22;30219;50.588;9.504;2022-09-09T16:16:24;18.80;97.20
44513;DHT22;30219;50.588;9.504;2022-09-09T16:18:51;18.70;97.30
44513;DHT22;30219;50.588;9.504;2022-09-09T16:21:29;18.70;97.40
44513;DHT22;30219;50.588;9.504;2022-09-09T16:23:56;18.60;97.50
44513;DHT22;30219;50.588;9.504;2022-09-09T16:26:22;18.50;97.60
44513;DHT22;30219;50.588;9.504;2022-09-09T16:28:49;18.60;97.70
44513;DHT22;30219;50.588;9.504;2022-09-09T16:31:22;18.50;97.60
44513;DHT22;30219;50.588;9.504;2022-09-09T16:33:49;18.40;97.80
44513;DHT22;30219;50.588;9.504;2022-09-09T16:36:18;18.40;98.00
44513;DHT22;30219;50.588;9.504;2022-09-09T16:38:44;18.30;97.90
44513;DHT22;30219;50.588;9.504;2022-09-09T16:41:11;18.40;97.90
44513;DHT22;30219;50.588;9.504;2022-09-09T16:43:37;18.40;98.20
44513;DHT22;30219;50.588;9.504;2022-09-09T16:46:10;18.40;98.00
44513;DHT22;30219;50.588;9.504;2022-09-09T16:48:36;18.40;98.20
44513;DHT22;30219;50.588;9.504;2022-09-09T16:51:05;18.40;98.20
44513;DHT22;30219;50.588;9.504;2022-09-09T16:53:32;18.30;98.30
44513;DHT22;30219;50.588;9.504;2022-09-09T16:56:04;18.30;98.40
44513;DHT22;30219;50.588;9.504;2022-09-09T16:58:30;18.30;98.60
44513;DHT22;30219;50.588;9.504;2022-09-09T17:00:59;18.30;98.60
44513;DHT22;30219;50.588;9.504;2022-09-09T17:03:25;18.30;98.80
44513;DHT22;30219;50.588;9.504;2022-09-09T17:05:51;18.20;99.10
44513;DHT22;30219;50.588;9.504;2022-09-09T17:08:16;18.10;99.30
44513;DHT22;30219;50.588;9.504;2022-09-09T17:10:42;18.10;99.50
44513;DHT22;30219;50.588;9.504;2022-09-09T17:13:08;18.10;99.60
44513;DHT22;30219;50.588;9.504;2022-09-09T17:15:38;18.00;99.80
44513;DHT22;30219;50.588;9.504;2022-09-09T17:18:05;18.00;99.80
44513;DHT22;30219;50.588;9.504;2022-09-09T17:20:34;18.00;99.70
44513;DHT22;30219;50.588;9.504;2022-09-09T17:23:00;18.00;99.80
44513;DHT22;30219;50.588;9.504;2022-09-09T17:25:25;17.90;99.90
44513;DHT22;30219;50.588;9.504;2022-09-09T17:27:51;17.90;99.90
44513;DHT22;30219;50.588;9.504;2022-09-09T17:30:18;17.80;99.90
44513;DHT22;30219;50.588;9.504;2022-09-09T17:32:44;17.80;99.90
44513;DHT22;30219;50.588;9.504;2022-09-09T17:35:09;17.70;99.90
44513;DHT22;30219;50.588;9.504;2022-09-09T17:37:35;17.60;99.90